createdAt,value
2019-04-04T00:01:10.476Z,14.60
2019-04-04T00:04:14.023Z,15.08
2019-04-04T00:07:17.566Z,15.53
2019-04-04T00:10:21.027Z,15.63
2019-04-04T00:13:24.562Z,15.48
2019-04-04T00:16:28.022Z,15.63
2019-04-04T00:19:31.325Z,15.23
2019-04-04T00:22:35.424Z,16.00
2019-04-04T00:25:40.497Z,15.58
2019-04-04T00:28:46.109Z,15.50
2019-04-04T00:31:50.287Z,15.48
2019-04-04T00:34:53.957Z,14.90
2019-04-04T00:37:57.498Z,16.52
2019-04-04T00:41:02.006Z,16.42
2019-04-04T00:44:05.392Z,14.23
2019-04-04T00:47:09.030Z,15.80
2019-04-04T00:50:12.697Z,15.90
2019-04-04T00:53:16.129Z,15.20
2019-04-04T00:56:19.498Z,15.83
2019-04-04T00:59:23.588Z,15.58
2019-04-04T01:02:27.889Z,17.02
2019-04-04T01:05:32.037Z,16.32
2019-04-04T01:08:38.278Z,16.27
2019-04-04T01:11:41.306Z,15.85
2019-04-04T01:14:44.717Z,16.40
2019-04-04T01:17:48.353Z,16.20
2019-04-04T01:20:51.821Z,16.75
2019-04-04T01:23:57.946Z,15.72
2019-04-04T01:27:00.562Z,15.58
2019-04-04T01:30:04.682Z,15.70
2019-04-04T01:33:08.115Z,14.70
2019-04-04T01:36:11.582Z,16.65
2019-04-04T01:39:14.883Z,15.35
2019-04-04T01:42:17.988Z,17.10
2019-04-04T01:45:21.269Z,15.78
2019-04-04T01:48:24.498Z,16.17
2019-04-04T01:51:27.561Z,16.10
2019-04-04T01:54:32.042Z,16.93
2019-04-04T01:57:38.515Z,17.00
2019-04-04T02:00:41.140Z,17.65
2019-04-04T02:03:44.382Z,17.55
2019-04-04T02:06:47.735Z,17.50
2019-04-04T02:09:50.929Z,17.90
2019-04-04T02:12:54.013Z,18.80
2019-04-04T02:15:56.833Z,16.90
2019-04-04T02:19:00.180Z,17.42
2019-04-04T02:22:03.474Z,17.50
2019-04-04T02:25:06.901Z,17.32
2019-04-04T02:28:10.063Z,17.60
2019-04-04T02:31:13.569Z,16.57
2019-04-04T02:34:16.671Z,15.68
2019-04-04T02:37:21.343Z,15.95
2019-04-04T02:40:25.006Z,17.00
2019-04-04T02:43:28.632Z,16.05
2019-04-04T02:46:32.017Z,15.95
2019-04-04T02:49:35.209Z,15.80
2019-04-04T02:52:38.295Z,17.00
2019-04-04T02:55:41.490Z,15.55
2019-04-04T02:58:46.374Z,17.07
2019-04-04T03:01:49.757Z,16.07
2019-04-04T03:04:53.055Z,16.82
2019-04-04T03:07:56.223Z,16.87
2019-04-04T03:10:59.441Z,16.12
2019-04-04T03:14:03.724Z,16.95
2019-04-04T03:17:07.851Z,17.07
2019-04-04T03:20:10.971Z,16.35
2019-04-04T03:23:14.131Z,17.25
2019-04-04T03:26:20.152Z,17.15
2019-04-04T03:29:23.286Z,16.80
2019-04-04T03:32:26.446Z,17.60
2019-04-04T03:35:29.733Z,17.60
2019-04-04T03:38:32.974Z,16.77
2019-04-04T03:41:36.443Z,16.45
2019-04-04T03:44:40.694Z,16.67
2019-04-04T03:47:51.162Z,16.85
2019-04-04T03:50:57.149Z,17.48
2019-04-04T03:54:01.775Z,16.30
2019-04-04T03:57:05.002Z,17.40
2019-04-04T04:00:09.287Z,16.48
2019-04-04T04:03:12.571Z,16.75
2019-04-04T04:06:16.011Z,16.75
2019-04-04T04:09:19.364Z,16.77
2019-04-04T04:12:22.596Z,16.85
2019-04-04T04:15:29.347Z,17.02
2019-04-04T04:18:30.895Z,16.70
2019-04-04T04:21:34.739Z,17.05
2019-04-04T04:24:37.897Z,16.27
2019-04-04T04:27:41.094Z,18.40
2019-04-04T04:30:44.332Z,16.82
2019-04-04T04:33:47.687Z,17.35
2019-04-04T04:41:37.848Z,17.60
2019-04-04T04:44:41.116Z,16.95
2019-04-04T04:47:44.213Z,17.92
2019-04-04T04:50:47.294Z,17.30
2019-04-04T04:53:51.246Z,17.75
2019-04-04T04:56:54.405Z,16.57
2019-04-04T04:59:57.489Z,16.90
2019-04-04T05:03:00.702Z,17.90
2019-04-04T05:06:03.939Z,16.75
2019-04-04T05:09:07.078Z,16.93
2019-04-04T05:12:10.217Z,16.37
2019-04-04T05:15:13.501Z,17.67
2019-04-04T05:18:17.100Z,17.32
2019-04-04T05:21:25.495Z,16.70
2019-04-04T05:24:25.540Z,17.57
2019-04-04T05:27:28.710Z,17.30
2019-04-04T05:30:31.974Z,18.07
2019-04-04T05:33:36.131Z,16.37
2019-04-04T05:36:39.425Z,17.07
2019-04-04T05:39:42.664Z,17.62
2019-04-04T05:42:45.826Z,17.40
2019-04-04T05:45:49.007Z,16.17
2019-04-04T05:48:52.100Z,15.72
2019-04-04T05:51:55.296Z,17.17
2019-04-04T05:54:58.590Z,17.65
2019-04-04T05:58:03.818Z,17.00
2019-04-04T06:01:08.041Z,15.78
2019-04-04T06:04:11.254Z,17.15
2019-04-04T06:07:16.346Z,15.53
2019-04-04T06:10:19.790Z,16.00
2019-04-04T06:13:23.091Z,15.08
2019-04-04T06:16:27.221Z,16.05
2019-04-04T06:19:30.398Z,16.67
2019-04-04T06:22:33.699Z,16.50
2019-04-04T06:25:37.455Z,15.63
2019-04-04T06:28:41.017Z,17.15
2019-04-04T06:31:44.305Z,16.45
2019-04-04T06:34:47.501Z,15.88
2019-04-04T06:37:51.410Z,16.45
2019-04-04T06:40:55.222Z,16.23
2019-04-04T06:43:58.461Z,17.75
2019-04-04T06:47:02.167Z,15.35
2019-04-04T06:50:08.054Z,15.70
2019-04-04T06:53:10.912Z,16.02
2019-04-04T06:56:14.074Z,14.65
2019-04-04T06:59:17.301Z,15.98
2019-04-04T07:02:21.998Z,15.60
2019-04-04T07:05:25.490Z,15.50
2019-04-04T07:08:38.363Z,15.72
2019-04-04T07:11:41.614Z,15.78
2019-04-04T07:14:46.010Z,15.55
2019-04-04T07:17:49.781Z,15.23
2019-04-04T07:20:53.141Z,15.38
2019-04-04T07:23:58.978Z,16.23
2019-04-04T07:27:01.170Z,14.78
2019-04-04T07:30:05.392Z,15.15
2019-04-04T07:33:11.799Z,13.15
2019-04-04T07:36:13.631Z,13.28
2019-04-04T07:39:16.855Z,13.13
2019-04-04T07:42:20.019Z,12.78
2019-04-04T07:45:25.966Z,12.58
2019-04-04T07:49:21.089Z,12.40
2019-04-04T07:52:24.695Z,12.58
2019-04-04T07:55:27.911Z,12.30
2019-04-04T07:58:31.118Z,12.28
2019-04-04T08:01:34.174Z,11.45
2019-04-04T08:04:37.378Z,11.65
2019-04-04T08:07:40.665Z,12.33
2019-04-04T08:10:43.867Z,12.45
2019-04-04T08:13:47.613Z,11.35
2019-04-04T08:17:01.419Z,12.63
2019-04-04T08:21:07.119Z,12.07
2019-04-04T08:29:49.357Z,11.95
2019-04-04T08:43:20.847Z,11.90
2019-04-04T08:46:52.343Z,11.12
2019-04-04T08:54:44.142Z,12.23
2019-04-04T09:05:49.668Z,10.43
2019-04-04T09:13:30.529Z,10.90
2019-04-04T09:22:06.440Z,11.10
2019-04-04T09:30:48.493Z,11.03
2019-04-04T09:33:51.870Z,11.38
2019-04-04T09:36:55.219Z,10.82
2019-04-04T09:39:58.502Z,11.40
2019-04-04T09:43:01.647Z,11.90
2019-04-04T09:50:42.747Z,11.03
2019-04-04T09:53:52.765Z,10.60
2019-04-04T09:56:51.201Z,11.20
2019-04-04T09:59:54.435Z,10.95
2019-04-04T10:02:57.694Z,10.93
2019-04-04T10:06:00.958Z,10.90
2019-04-04T10:09:15.455Z,10.25
2019-04-04T10:12:11.366Z,10.28
2019-04-04T10:15:15.444Z,10.53
2019-04-04T10:18:18.790Z,10.20
2019-04-04T10:21:22.026Z,10.90
2019-04-04T10:24:25.424Z,10.45
2019-04-04T10:27:31.445Z,12.05
2019-04-04T10:30:34.679Z,11.53
2019-04-04T10:33:37.913Z,9.88
2019-04-04T10:36:41.030Z,10.30
2019-04-04T10:39:44.175Z,11.33
2019-04-04T10:42:47.379Z,10.70
2019-04-04T10:45:51.649Z,10.40
2019-04-04T10:48:54.879Z,10.10
2019-04-04T10:51:57.966Z,10.13
2019-04-04T10:55:01.649Z,11.05
2019-04-04T10:58:06.271Z,10.68
2019-04-04T11:01:09.398Z,9.63
2019-04-04T11:04:12.454Z,10.05
2019-04-04T11:07:15.689Z,9.40
2019-04-04T11:10:18.846Z,9.90
2019-04-04T11:13:32.772Z,9.40
2019-04-04T11:16:30.497Z,9.30
2019-04-04T11:19:33.035Z,9.68
2019-04-04T11:22:36.121Z,9.78
2019-04-04T11:25:39.328Z,8.55
2019-04-04T11:28:42.628Z,8.30
2019-04-04T11:31:45.866Z,8.23
2019-04-04T11:34:53.484Z,8.00
2019-04-04T11:37:54.194Z,8.18
2019-04-04T11:40:57.386Z,8.75
2019-04-04T11:44:00.441Z,7.67
2019-04-04T11:47:03.570Z,7.45
2019-04-04T11:50:07.571Z,7.35
2019-04-04T11:53:10.742Z,6.95
2019-04-04T11:56:13.872Z,7.22
2019-04-04T11:59:17.190Z,7.92
2019-04-04T12:02:20.445Z,7.17
2019-04-04T12:05:24.289Z,7.15
2019-04-04T12:08:29.153Z,7.17
2019-04-04T12:11:32.403Z,7.15
2019-04-04T12:14:35.467Z,7.60
2019-04-04T12:17:38.790Z,7.15
2019-04-04T12:20:43.490Z,7.12
2019-04-04T12:23:46.891Z,7.33
2019-04-04T12:26:50.094Z,6.53
2019-04-04T12:29:53.630Z,6.65
2019-04-04T12:32:56.811Z,6.78
2019-04-04T12:36:00.223Z,7.62
2019-04-04T12:39:04.727Z,6.70
2019-04-04T12:42:09.853Z,7.22
2019-04-04T12:45:13.355Z,6.72
2019-04-04T12:48:16.762Z,6.72
2019-04-04T12:51:19.899Z,7.00
2019-04-04T12:54:23.146Z,7.37
2019-04-04T12:57:26.545Z,6.80
2019-04-04T13:00:29.638Z,7.97
2019-04-04T13:03:34.612Z,7.00
2019-04-04T13:06:39.520Z,7.12
2019-04-04T13:09:42.817Z,6.60
2019-04-04T13:12:47.042Z,6.92
2019-04-04T13:15:50.126Z,7.53
2019-04-04T13:18:53.214Z,6.10
2019-04-04T13:21:56.438Z,6.80
2019-04-04T13:24:59.601Z,6.20
2019-04-04T13:28:03.004Z,6.12
2019-04-04T13:31:06.304Z,5.72
2019-04-04T13:34:09.631Z,6.05
2019-04-04T13:37:12.938Z,6.37
2019-04-04T13:40:16.394Z,6.35
2019-04-04T13:43:22.510Z,6.03
2019-04-04T13:46:45.727Z,5.90
2019-04-04T13:49:48.822Z,5.30
2019-04-04T13:52:52.013Z,6.55
2019-04-04T13:55:58.086Z,6.00
2019-04-04T13:59:02.041Z,5.92
2019-04-04T14:02:05.282Z,5.80
2019-04-04T14:05:10.602Z,6.08
2019-04-04T14:08:14.482Z,6.22
2019-04-04T14:11:17.634Z,5.97
2019-04-04T14:14:20.767Z,5.35
2019-04-04T14:17:24.074Z,5.62
2019-04-04T14:20:28.558Z,5.42
2019-04-04T14:23:31.791Z,5.30
2019-04-04T14:26:35.042Z,5.78
2019-04-04T14:29:38.147Z,5.45
2019-04-04T14:32:41.371Z,5.20
2019-04-04T14:35:44.431Z,5.28
2019-04-04T14:38:47.763Z,5.15
2019-04-04T14:41:51.018Z,4.97
2019-04-04T14:44:54.214Z,5.17
2019-04-04T14:47:57.544Z,4.65
2019-04-04T14:51:00.798Z,4.85
2019-04-04T14:54:04.139Z,4.87
2019-04-04T14:57:07.385Z,4.83
2019-04-04T15:00:15.518Z,5.12
2019-04-04T15:03:17.702Z,5.20
2019-04-04T15:06:20.862Z,5.80
2019-04-04T15:09:24.027Z,4.80
2019-04-04T15:12:27.177Z,4.40
2019-04-04T15:15:30.441Z,4.22
2019-04-04T15:18:33.679Z,4.45
2019-04-04T15:21:36.725Z,4.67
2019-04-04T15:24:39.829Z,4.42
2019-04-04T15:27:43.019Z,4.55
2019-04-04T15:30:46.218Z,4.83
2019-04-04T15:33:50.543Z,4.72
2019-04-04T15:36:53.978Z,4.35
2019-04-04T15:39:57.341Z,4.40
2019-04-04T15:43:01.281Z,4.67
2019-04-04T15:46:05.269Z,4.25
2019-04-04T15:49:09.518Z,5.33
2019-04-04T15:52:12.573Z,5.17
2019-04-04T15:55:15.878Z,5.25
2019-04-04T15:58:19.010Z,5.00
2019-04-04T16:01:22.121Z,5.08
2019-04-04T16:04:25.454Z,5.20
2019-04-04T16:07:29.157Z,5.28
2019-04-04T16:10:32.358Z,5.55
2019-04-04T16:13:35.595Z,5.58
2019-04-04T16:16:38.881Z,5.67
2019-04-04T16:19:42.163Z,5.78
2019-04-04T16:22:45.342Z,6.90
2019-04-04T16:25:48.646Z,6.65
2019-04-04T16:28:51.970Z,5.60
2019-04-04T16:31:55.210Z,7.65
2019-04-04T16:34:58.328Z,6.47
2019-04-04T16:38:01.421Z,6.42
2019-04-04T16:41:04.518Z,6.80
2019-04-04T16:44:07.621Z,5.80
2019-04-04T16:47:10.901Z,5.90
2019-04-04T16:50:14.265Z,5.58
2019-04-04T16:53:17.298Z,6.22
2019-04-04T16:56:20.390Z,6.22
2019-04-04T16:59:23.485Z,5.75
2019-04-04T17:02:26.774Z,5.65
2019-04-04T17:05:29.873Z,6.37
2019-04-04T17:08:33.067Z,6.22
2019-04-04T17:11:36.262Z,5.78
2019-04-04T17:14:39.456Z,6.95
2019-04-04T17:17:42.749Z,7.55
2019-04-04T17:20:45.956Z,8.00
2019-04-04T17:23:49.141Z,15.98
2019-04-04T17:26:52.441Z,14.43
2019-04-04T17:29:55.812Z,10.63
2019-04-04T17:33:00.057Z,10.93
2019-04-04T17:36:03.630Z,9.75
2019-04-04T17:39:33.014Z,7.67
2019-04-04T17:42:36.657Z,7.55
2019-04-04T17:45:40.134Z,10.32
2019-04-04T17:48:43.174Z,7.78
2019-04-04T17:51:46.864Z,7.33
2019-04-04T17:54:50.118Z,6.83
2019-04-04T17:57:53.382Z,6.60
2019-04-04T18:00:56.709Z,7.72
2019-04-04T18:04:00.070Z,7.05
2019-04-04T18:07:03.206Z,7.03
2019-04-04T18:10:07.015Z,7.45
2019-04-04T18:13:11.293Z,6.37
2019-04-04T18:16:14.834Z,7.08
2019-04-04T18:19:18.095Z,6.90
2019-04-04T18:22:21.499Z,8.08
2019-04-04T18:25:24.726Z,10.23
2019-04-04T18:28:27.990Z,11.08
2019-04-04T18:31:31.127Z,10.20
2019-04-04T18:34:34.373Z,7.90
2019-04-04T18:37:38.104Z,7.47
2019-04-04T18:40:41.320Z,7.53
2019-04-04T18:43:44.479Z,7.12
2019-04-04T18:46:47.815Z,7.05
2019-04-04T18:49:51.075Z,6.97
2019-04-04T18:52:54.262Z,6.55
2019-04-04T18:55:57.497Z,7.05
2019-04-04T18:59:00.661Z,6.87
2019-04-04T19:02:22.438Z,7.65
2019-04-04T19:05:25.581Z,7.05
2019-04-04T19:08:28.786Z,6.92
2019-04-04T19:11:31.912Z,7.00
2019-04-04T19:14:35.063Z,7.42
2019-04-04T19:17:38.371Z,6.87
2019-04-04T19:20:41.590Z,6.72
2019-04-04T19:23:49.445Z,6.75
2019-04-04T19:26:49.723Z,7.85
2019-04-04T19:29:52.880Z,7.30
2019-04-04T19:32:55.979Z,6.72
2019-04-04T19:35:59.423Z,6.75
2019-04-04T19:39:04.723Z,7.28
2019-04-04T19:42:08.474Z,7.25
2019-04-04T19:45:13.162Z,7.30
2019-04-04T19:48:16.361Z,7.75
2019-04-04T19:51:19.695Z,8.28
2019-04-04T19:54:22.953Z,8.75
2019-04-04T19:57:28.466Z,7.70
2019-04-04T20:00:32.243Z,8.05
2019-04-04T20:03:35.418Z,8.35
2019-04-04T20:06:38.629Z,7.45
2019-04-04T20:09:41.790Z,7.37
2019-04-04T20:12:45.197Z,6.90
2019-04-04T20:15:48.618Z,7.75
2019-04-04T20:18:52.957Z,6.90
2019-04-04T20:21:56.562Z,7.00
2019-04-04T20:24:59.721Z,6.33
2019-04-04T20:28:03.069Z,7.40
2019-04-04T20:31:06.302Z,7.42
2019-04-04T20:34:09.410Z,7.08
2019-04-04T20:37:12.602Z,7.90
2019-04-04T20:40:15.898Z,7.40
2019-04-04T20:43:19.089Z,7.70
2019-04-04T20:46:22.286Z,8.25
2019-04-04T20:49:25.098Z,8.43
2019-04-04T20:52:28.177Z,8.35
2019-04-04T20:55:30.970Z,8.45
2019-04-04T20:58:34.000Z,8.33
2019-04-04T21:01:37.130Z,9.18
2019-04-04T21:04:40.489Z,8.28
2019-04-04T21:07:43.741Z,9.03
2019-04-04T21:10:46.929Z,9.33
2019-04-04T21:13:56.135Z,9.13
2019-04-04T21:16:55.654Z,8.60
2019-04-04T21:19:58.878Z,8.38
2019-04-04T21:23:03.193Z,8.58
2019-04-04T21:26:06.394Z,8.10
2019-04-04T21:29:09.694Z,8.75
2019-04-04T21:32:12.883Z,8.58
2019-04-04T21:35:16.074Z,8.28
2019-04-04T21:38:19.207Z,8.40
2019-04-04T21:41:22.479Z,8.63
2019-04-04T21:49:00.748Z,8.33
2019-04-04T21:52:03.938Z,8.63
2019-04-04T21:55:06.774Z,9.45
2019-04-04T21:58:09.923Z,8.90
2019-04-04T22:01:13.202Z,8.65
2019-04-04T22:04:16.370Z,8.38
2019-04-04T22:07:19.614Z,9.75
2019-04-04T22:10:22.872Z,8.10
2019-04-04T22:13:26.234Z,8.73
2019-04-04T22:16:29.379Z,8.65
2019-04-04T22:19:32.466Z,8.48
2019-04-04T22:22:35.895Z,8.45
2019-04-04T22:25:39.249Z,8.55
2019-04-04T22:28:43.543Z,8.15
2019-04-04T22:31:46.770Z,8.23
2019-04-04T22:34:49.974Z,8.38
2019-04-04T22:37:53.101Z,8.53
2019-04-04T22:40:56.258Z,8.15
2019-04-04T22:44:03.601Z,9.63
2019-04-04T22:47:04.281Z,8.75
2019-04-04T22:50:07.929Z,8.78
2019-04-04T22:53:12.373Z,9.25
2019-04-04T22:56:15.714Z,8.75
2019-04-04T22:59:18.906Z,8.50
2019-04-04T23:02:22.201Z,8.98
2019-04-04T23:05:25.407Z,8.98
2019-04-04T23:08:30.067Z,9.08
2019-04-04T23:11:33.117Z,8.95
2019-04-04T23:14:47.508Z,10.15
2019-04-04T23:17:40.906Z,9.45
2019-04-04T23:20:44.146Z,10.38
2019-04-04T23:23:47.291Z,10.18
2019-04-04T23:26:50.322Z,10.28
2019-04-04T23:29:53.517Z,9.98
2019-04-04T23:32:56.814Z,10.48
2019-04-04T23:36:00.320Z,11.03
2019-04-04T23:39:05.889Z,10.53
2019-04-04T23:42:09.270Z,10.70
2019-04-04T23:45:12.665Z,10.88
2019-04-04T23:48:15.862Z,10.53
2019-04-04T23:51:19.062Z,10.63
2019-04-04T23:54:22.250Z,10.95
2019-04-04T23:57:25.766Z,10.82
